sensor_id;sensor_type;location;lat;lon;timestamp;pressure;altitude;pressure_sealevel;temperature;humidity
69570;BME280;56781;42.292;23.146;2023-02-03T00:01:55;95863.69;;;0.89;100.00
69570;BME280;56781;42.292;23.146;2023-02-03T00:04:23;95839.53;;;0.69;100.00
69570;BME280;56781;42.292;23.146;2023-02-03T00:06:50;95845.50;;;0.76;100.00
69570;BME280;56781;42.292;23.146;2023-02-03T00:09:18;95843.63;;;0.65;100.00
69570;BME280;56781;42.292;23.146;2023-02-03T00:11:45;95845.94;;;0.73;100.00
69570;BME280;56781;42.292;23.146;2023-02-03T00:14:12;95822.56;;;0.53;100.00
69570;BME280;56781;42.292;23.146;2023-02-03T00:16:40;95853.94;;;0.78;100.00
69570;BME280;56781;42.292;23.146;2023-02-03T00:19:07;95825.66;;;0.62;100.00
69570;BME280;56781;42.292;23.146;2023-02-03T00:21:34;95831.84;;;0.68;100.00
69570;BME280;56781;42.292;23.146;2023-02-03T00:24:01;95802.31;;;0.42;100.00
69570;BME280;56781;42.292;23.146;2023-02-03T00:26:29;95855.00;;;0.65;100.00
69570;BME280;56781;42.292;23.146;2023-02-03T00:28:58;95828.09;;;0.52;100.00
69570;BME280;56781;42.292;23.146;2023-02-03T00:31:25;95819.38;;;0.51;100.00
69570;BME280;56781;42.292;23.146;2023-02-03T00:33:54;95841.59;;;0.67;100.00
69570;BME280;56781;42.292;23.146;2023-02-03T00:36:23;95831.97;;;0.49;100.00
69570;BME280;56781;42.292;23.146;2023-02-03T00:38:50;95865.41;;;0.72;100.00
69570;BME280;56781;42.292;23.146;2023-02-03T00:41:18;95816.84;;;0.44;100.00
69570;BME280;56781;42.292;23.146;2023-02-03T00:43:46;95849.03;;;0.58;100.00
69570;BME280;56781;42.292;23.146;2023-02-03T00:46:14;95819.69;;;0.31;100.00
69570;BME280;56781;42.292;23.146;2023-02-03T00:48:41;95868.16;;;0.54;100.00
69570;BME280;56781;42.292;23.146;2023-02-03T00:51:08;95849.16;;;0.52;100.00
69570;BME280;56781;42.292;23.146;2023-02-03T00:53:35;95859.56;;;0.47;100.00
69570;BME280;56781;42.292;23.146;2023-02-03T00:56:03;95847.19;;;0.35;100.00
69570;BME280;56781;42.292;23.146;2023-02-03T00:58:30;95857.03;;;0.40;100.00
69570;BME280;56781;42.292;23.146;2023-02-03T01:00:57;95855.91;;;0.48;100.00
69570;BME280;56781;42.292;23.146;2023-02-03T01:03:24;95873.91;;;0.74;100.00
69570;BME280;56781;42.292;23.146;2023-02-03T01:05:51;95854.88;;;0.72;100.00
69570;BME280;56781;42.292;23.146;2023-02-03T01:08:18;95874.56;;;0.81;100.00
69570;BME280;56781;42.292;23.146;2023-02-03T01:10:45;95889.59;;;0.81;100.00
69570;BME280;56781;42.292;23.146;2023-02-03T01:13:13;95884.19;;;0.76;100.00
69570;BME280;56781;42.292;23.146;2023-02-03T01:15:46;95914.34;;;0.92;100.00
69570;BME280;56781;42.292;23.146;2023-02-03T01:18:14;95917.44;;;0.77;100.00
69570;BME280;56781;42.292;23.146;2023-02-03T01:20:41;95923.72;;;0.64;100.00
69570;BME280;56781;42.292;23.146;2023-02-03T01:23:08;95922.56;;;0.60;100.00
69570;BME280;56781;42.292;23.146;2023-02-03T01:25:35;95883.81;;;0.25;100.00
69570;BME280;56781;42.292;23.146;2023-02-03T01:28:02;95927.78;;;0.36;100.00
69570;BME280;56781;42.292;23.146;2023-02-03T01:30:32;95924.88;;;0.26;100.00
69570;BME280;56781;42.292;23.146;2023-02-03T01:32:59;95914.31;;;0.14;100.00
69570;BME280;56781;42.292;23.146;2023-02-03T01:35:26;95936.84;;;0.10;100.00
69570;BME280;56781;42.292;23.146;2023-02-03T01:37:53;95940.06;;;-0.18;100.00
69570;BME280;56781;42.292;23.146;2023-02-03T01:40:20;95945.91;;;-0.34;100.00
69570;BME280;56781;42.292;23.146;2023-02-03T01:42:47;95942.97;;;-0.26;100.00
69570;BME280;56781;42.292;23.146;2023-02-03T01:45:18;95936.47;;;-0.24;100.00
69570;BME280;56781;42.292;23.146;2023-02-03T01:47:49;95941.03;;;-0.01;100.00
69570;BME280;56781;42.292;23.146;2023-02-03T01:50:26;95960.47;;;0.17;100.00
69570;BME280;56781;42.292;23.146;2023-02-03T01:52:59;95934.00;;;0.12;100.00
69570;BME280;56781;42.292;23.146;2023-02-03T01:55:35;95941.75;;;0.07;100.00
69570;BME280;56781;42.292;23.146;2023-02-03T01:58:17;95947.38;;;0.10;100.00
69570;BME280;56781;42.292;23.146;2023-02-03T02:00:47;95938.47;;;0.11;100.00
69570;BME280;56781;42.292;23.146;2023-02-03T02:03:17;95971.88;;;0.41;100.00
69570;BME280;56781;42.292;23.146;2023-02-03T02:05:53;95936.03;;;0.10;100.00
69570;BME280;56781;42.292;23.146;2023-02-03T02:08:22;95943.19;;;0.21;100.00
69570;BME280;56781;42.292;23.146;2023-02-03T02:10:51;95960.16;;;0.25;100.00
69570;BME280;56781;42.292;23.146;2023-02-03T02:13:19;95916.34;;;0.01;100.00
69570;BME280;56781;42.292;23.146;2023-02-03T02:23:49;95980.47;;;0.48;100.00
69570;BME280;56781;42.292;23.146;2023-02-03T02:32:14;95989.88;;;0.44;100.00
69570;BME280;56781;42.292;23.146;2023-02-03T02:35:08;96015.56;;;0.60;100.00
69570;BME280;56781;42.292;23.146;2023-02-03T02:38:01;96018.72;;;0.51;100.00
69570;BME280;56781;42.292;23.146;2023-02-03T02:43:19;96011.09;;;0.31;100.00
69570;BME280;56781;42.292;23.146;2023-02-03T02:46:02;96009.00;;;0.21;100.00
69570;BME280;56781;42.292;23.146;2023-02-03T02:48:39;96008.53;;;0.24;100.00
69570;BME280;56781;42.292;23.146;2023-02-03T02:51:11;96004.31;;;0.23;100.00
69570;BME280;56781;42.292;23.146;2023-02-03T02:53:44;95992.91;;;0.11;100.00
69570;BME280;56781;42.292;23.146;2023-02-03T02:56:13;96005.22;;;0.17;100.00
69570;BME280;56781;42.292;23.146;2023-02-03T02:58:44;96019.91;;;0.25;100.00
69570;BME280;56781;42.292;23.146;2023-02-03T03:01:15;96015.28;;;0.20;100.00
69570;BME280;56781;42.292;23.146;2023-02-03T03:03:42;96021.19;;;0.34;100.00
69570;BME280;56781;42.292;23.146;2023-02-03T03:06:16;96024.66;;;0.16;100.00
69570;BME280;56781;42.292;23.146;2023-02-03T03:08:51;96046.75;;;0.15;100.00
69570;BME280;56781;42.292;23.146;2023-02-03T03:11:23;96054.84;;;0.13;100.00
69570;BME280;56781;42.292;23.146;2023-02-03T03:13:53;96026.28;;;-0.02;100.00
69570;BME280;56781;42.292;23.146;2023-02-03T03:16:26;96009.47;;;-0.01;100.00
69570;BME280;56781;42.292;23.146;2023-02-03T03:18:59;95994.41;;;0.07;100.00
69570;BME280;56781;42.292;23.146;2023-02-03T03:21:35;95999.75;;;0.00;100.00
69570;BME280;56781;42.292;23.146;2023-02-03T03:24:07;96033.28;;;0.05;100.00
69570;BME280;56781;42.292;23.146;2023-02-03T03:26:48;96024.53;;;-0.08;100.00
69570;BME280;56781;42.292;23.146;2023-02-03T03:29:29;96048.72;;;0.01;100.00
69570;BME280;56781;42.292;23.146;2023-02-03T03:31:57;96024.00;;;-0.16;100.00
69570;BME280;56781;42.292;23.146;2023-02-03T03:34:24;96025.03;;;-0.17;100.00
69570;BME280;56781;42.292;23.146;2023-02-03T03:37:01;96011.94;;;-0.06;100.00
69570;BME280;56781;42.292;23.146;2023-02-03T03:39:40;96047.53;;;-0.03;100.00
69570;BME280;56781;42.292;23.146;2023-02-03T03:42:22;96018.22;;;-0.25;100.00
69570;BME280;56781;42.292;23.146;2023-02-03T03:47:49;96040.63;;;-0.16;100.00
69570;BME280;56781;42.292;23.146;2023-02-03T03:50:20;96016.03;;;-0.47;100.00
69570;BME280;56781;42.292;23.146;2023-02-03T03:52:50;96042.88;;;-0.63;100.00
69570;BME280;56781;42.292;23.146;2023-02-03T03:55:19;96021.34;;;-0.97;100.00
69570;BME280;56781;42.292;23.146;2023-02-03T03:57:59;96021.78;;;-1.00;100.00
69570;BME280;56781;42.292;23.146;2023-02-03T04:00:29;96021.13;;;-0.95;100.00
69570;BME280;56781;42.292;23.146;2023-02-03T04:03:01;96003.47;;;-1.13;100.00
69570;BME280;56781;42.292;23.146;2023-02-03T04:05:31;96004.53;;;-1.46;100.00
69570;BME280;56781;42.292;23.146;2023-02-03T04:07:59;96017.75;;;-1.66;100.00
69570;BME280;56781;42.292;23.146;2023-02-03T04:10:34;96001.31;;;-1.86;100.00
69570;BME280;56781;42.292;23.146;2023-02-03T04:13:02;96018.28;;;-1.89;100.00
69570;BME280;56781;42.292;23.146;2023-02-03T04:15:31;96047.81;;;-1.62;100.00
69570;BME280;56781;42.292;23.146;2023-02-03T04:17:58;96014.31;;;-1.60;100.00
69570;BME280;56781;42.292;23.146;2023-02-03T04:20:28;96044.75;;;-0.95;100.00
69570;BME280;56781;42.292;23.146;2023-02-03T04:22:56;96024.56;;;-0.95;100.00
69570;BME280;56781;42.292;23.146;2023-02-03T04:25:24;96028.28;;;-0.59;100.00
69570;BME280;56781;42.292;23.146;2023-02-03T04:27:51;96051.22;;;0.14;97.27
69570;BME280;56781;42.292;23.146;2023-02-03T04:30:18;96043.03;;;0.53;93.23
69570;BME280;56781;42.292;23.146;2023-02-03T04:32:46;96014.97;;;0.47;92.65
69570;BME280;56781;42.292;23.146;2023-02-03T04:35:13;96029.00;;;0.40;91.42
69570;BME280;56781;42.292;23.146;2023-02-03T04:37:41;96021.72;;;0.24;93.58
69570;BME280;56781;42.292;23.146;2023-02-03T04:40:09;96045.41;;;0.24;96.39
69570;BME280;56781;42.292;23.146;2023-02-03T04:42:37;96037.47;;;-0.06;98.86
69570;BME280;56781;42.292;23.146;2023-02-03T04:45:06;96028.25;;;-0.15;100.00
69570;BME280;56781;42.292;23.146;2023-02-03T04:47:34;96074.66;;;0.34;94.22
69570;BME280;56781;42.292;23.146;2023-02-03T04:50:01;96044.00;;;0.21;94.95
69570;BME280;56781;42.292;23.146;2023-02-03T04:52:28;96068.09;;;0.07;98.53
69570;BME280;56781;42.292;23.146;2023-02-03T04:54:55;96053.63;;;-0.03;100.00
69570;BME280;56781;42.292;23.146;2023-02-03T04:57:23;96089.00;;;0.20;99.67
69570;BME280;56781;42.292;23.146;2023-02-03T04:59:50;96065.47;;;0.25;93.70
69570;BME280;56781;42.292;23.146;2023-02-03T05:02:17;96086.22;;;0.52;95.57
69570;BME280;56781;42.292;23.146;2023-02-03T05:04:44;96098.06;;;0.24;96.85
69570;BME280;56781;42.292;23.146;2023-02-03T05:07:11;96081.84;;;-0.10;100.00
69570;BME280;56781;42.292;23.146;2023-02-03T05:09:38;96073.63;;;-0.20;100.00
69570;BME280;56781;42.292;23.146;2023-02-03T05:12:05;96084.03;;;-0.07;100.00
69570;BME280;56781;42.292;23.146;2023-02-03T05:14:32;96093.16;;;-0.09;100.00
69570;BME280;56781;42.292;23.146;2023-02-03T05:16:59;96114.75;;;0.18;100.00
69570;BME280;56781;42.292;23.146;2023-02-03T05:19:27;96111.47;;;0.22;100.00
69570;BME280;56781;42.292;23.146;2023-02-03T05:21:54;96077.59;;;-0.11;99.56
69570;BME280;56781;42.292;23.146;2023-02-03T05:24:21;96107.13;;;0.10;97.91
69570;BME280;56781;42.292;23.146;2023-02-03T05:26:48;96125.06;;;0.19;98.65
69570;BME280;56781;42.292;23.146;2023-02-03T05:29:15;96102.28;;;-0.12;99.97
69570;BME280;56781;42.292;23.146;2023-02-03T05:31:42;96095.47;;;-0.19;100.00
69570;BME280;56781;42.292;23.146;2023-02-03T05:34:09;96096.31;;;-0.19;100.00
69570;BME280;56781;42.292;23.146;2023-02-03T05:36:36;96100.09;;;-0.15;100.00
69570;BME280;56781;42.292;23.146;2023-02-03T05:39:03;96105.19;;;-0.20;100.00
69570;BME280;56781;42.292;23.146;2023-02-03T05:41:31;96139.75;;;0.09;99.46
69570;BME280;56781;42.292;23.146;2023-02-03T05:44:16;96100.31;;;-0.16;97.83
69570;BME280;56781;42.292;23.146;2023-02-03T05:46:43;96119.97;;;-0.19;100.00
69570;BME280;56781;42.292;23.146;2023-02-03T05:49:10;96130.28;;;-0.17;100.00
69570;BME280;56781;42.292;23.146;2023-02-03T05:51:38;96117.41;;;-0.26;100.00
69570;BME280;56781;42.292;23.146;2023-02-03T05:54:06;96100.69;;;-0.56;100.00
69570;BME280;56781;42.292;23.146;2023-02-03T05:56:34;96136.25;;;-0.54;100.00
69570;BME280;56781;42.292;23.146;2023-02-03T05:59:02;96113.66;;;-0.86;100.00
69570;BME280;56781;42.292;23.146;2023-02-03T06:01:33;96113.84;;;-0.88;99.46
69570;BME280;56781;42.292;23.146;2023-02-03T06:04:04;96146.06;;;-0.68;98.82
69570;BME280;56781;42.292;23.146;2023-02-03T06:06:32;96118.03;;;-1.05;98.02
69570;BME280;56781;42.292;23.146;2023-02-03T06:09:04;96150.03;;;-0.58;96.65
69570;BME280;56781;42.292;23.146;2023-02-03T06:11:33;96139.06;;;-0.80;95.15
69570;BME280;56781;42.292;23.146;2023-02-03T06:14:02;96139.59;;;-0.97;95.68
69570;BME280;56781;42.292;23.146;2023-02-03T06:16:29;96171.28;;;-0.92;95.98
69570;BME280;56781;42.292;23.146;2023-02-03T06:18:56;96178.81;;;-1.02;97.76
69570;BME280;56781;42.292;23.146;2023-02-03T06:21:25;96174.16;;;-1.00;97.73
69570;BME280;56781;42.292;23.146;2023-02-03T06:23:53;96165.63;;;-0.88;98.00
69570;BME280;56781;42.292;23.146;2023-02-03T06:26:21;96160.84;;;-1.05;98.43
69570;BME280;56781;42.292;23.146;2023-02-03T06:28:48;96158.41;;;-1.00;97.83
69570;BME280;56781;42.292;23.146;2023-02-03T06:31:16;96170.22;;;-0.52;96.24
69570;BME280;56781;42.292;23.146;2023-02-03T06:33:43;96161.25;;;-0.70;94.44
69570;BME280;56781;42.292;23.146;2023-02-03T06:36:10;96149.16;;;-0.77;94.47
69570;BME280;56781;42.292;23.146;2023-02-03T06:38:38;96178.94;;;-0.83;95.09
69570;BME280;56781;42.292;23.146;2023-02-03T06:41:05;96173.22;;;-1.12;97.43
69570;BME280;56781;42.292;23.146;2023-02-03T06:43:32;96164.09;;;-1.03;96.95
69570;BME280;56781;42.292;23.146;2023-02-03T06:46:01;96171.25;;;-0.85;95.46
69570;BME280;56781;42.292;23.146;2023-02-03T06:48:28;96200.34;;;-0.48;94.93
69570;BME280;56781;42.292;23.146;2023-02-03T06:50:55;96143.91;;;-0.52;95.55
69570;BME280;56781;42.292;23.146;2023-02-03T06:53:22;96191.44;;;-0.22;97.17
69570;BME280;56781;42.292;23.146;2023-02-03T06:55:49;96177.09;;;-0.26;96.34
69570;BME280;56781;42.292;23.146;2023-02-03T06:58:16;96186.25;;;-0.35;98.26
69570;BME280;56781;42.292;23.146;2023-02-03T07:00:44;96204.22;;;-0.26;97.03
69570;BME280;56781;42.292;23.146;2023-02-03T07:03:11;96201.16;;;-0.23;98.47
69570;BME280;56781;42.292;23.146;2023-02-03T07:05:38;96202.88;;;-0.10;98.68
69570;BME280;56781;42.292;23.146;2023-02-03T07:08:06;96156.09;;;-0.08;96.90
69570;BME280;56781;42.292;23.146;2023-02-03T07:10:33;96187.53;;;0.31;96.25
69570;BME280;56781;42.292;23.146;2023-02-03T07:13:04;96199.88;;;0.30;98.24
69570;BME280;56781;42.292;23.146;2023-02-03T07:15:32;96184.94;;;0.06;98.11
69570;BME280;56781;42.292;23.146;2023-02-03T07:17:59;96189.09;;;0.13;98.67
69570;BME280;56781;42.292;23.146;2023-02-03T07:20:27;96212.41;;;0.53;90.70
69570;BME280;56781;42.292;23.146;2023-02-03T07:22:56;96172.38;;;0.63;87.37
69570;BME280;56781;42.292;23.146;2023-02-03T07:25:24;96217.84;;;1.25;85.65
69570;BME280;56781;42.292;23.146;2023-02-03T07:27:52;96192.16;;;1.32;83.86
69570;BME280;56781;42.292;23.146;2023-02-03T07:30:19;96189.69;;;1.19;84.28
69570;BME280;56781;42.292;23.146;2023-02-03T07:32:47;96187.06;;;1.19;84.79
69570;BME280;56781;42.292;23.146;2023-02-03T07:35:16;96216.75;;;1.45;85.94
69570;BME280;56781;42.292;23.146;2023-02-03T07:37:43;96188.69;;;1.20;86.13
69570;BME280;56781;42.292;23.146;2023-02-03T07:40:12;96195.25;;;1.29;86.33
69570;BME280;56781;42.292;23.146;2023-02-03T07:42:43;96203.31;;;1.46;85.55
69570;BME280;56781;42.292;23.146;2023-02-03T07:45:12;96202.47;;;1.64;84.06
69570;BME280;56781;42.292;23.146;2023-02-03T07:47:40;96225.09;;;1.72;83.61
69570;BME280;56781;42.292;23.146;2023-02-03T07:50:09;96192.94;;;1.63;81.20
69570;BME280;56781;42.292;23.146;2023-02-03T07:52:36;96206.78;;;1.47;82.77
69570;BME280;56781;42.292;23.146;2023-02-03T07:55:04;96209.31;;;1.53;81.64
69570;BME280;56781;42.292;23.146;2023-02-03T07:57:31;96198.31;;;1.57;82.47
69570;BME280;56781;42.292;23.146;2023-02-03T07:59:58;96210.84;;;1.73;81.94
69570;BME280;56781;42.292;23.146;2023-02-03T08:02:28;96201.34;;;1.84;80.95
69570;BME280;56781;42.292;23.146;2023-02-03T08:04:55;96220.19;;;2.22;80.94
69570;BME280;56781;42.292;23.146;2023-02-03T08:07:23;96196.28;;;2.64;77.44
69570;BME280;56781;42.292;23.146;2023-02-03T08:09:51;96199.28;;;3.08;76.44
69570;BME280;56781;42.292;23.146;2023-02-03T08:12:18;96218.38;;;3.10;71.81
69570;BME280;56781;42.292;23.146;2023-02-03T08:14:45;96202.41;;;2.53;74.76
69570;BME280;56781;42.292;23.146;2023-02-03T08:17:12;96195.19;;;2.89;75.42
69570;BME280;56781;42.292;23.146;2023-02-03T08:19:39;96222.22;;;2.91;76.73
69570;BME280;56781;42.292;23.146;2023-02-03T08:22:06;96222.50;;;2.66;75.76
69570;BME280;56781;42.292;23.146;2023-02-03T08:24:33;96235.00;;;2.82;74.85
69570;BME280;56781;42.292;23.146;2023-02-03T08:27:00;96243.00;;;2.99;75.23
69570;BME280;56781;42.292;23.146;2023-02-03T08:29:28;96240.38;;;2.87;73.07
69570;BME280;56781;42.292;23.146;2023-02-03T08:31:55;96192.94;;;2.81;70.84
69570;BME280;56781;42.292;23.146;2023-02-03T08:34:24;96229.16;;;3.21;70.83
69570;BME280;56781;42.292;23.146;2023-02-03T08:36:51;96219.78;;;3.01;73.01
69570;BME280;56781;42.292;23.146;2023-02-03T08:39:18;96235.84;;;3.11;72.55
69570;BME280;56781;42.292;23.146;2023-02-03T08:41:46;96243.25;;;3.67;70.01
69570;BME280;56781;42.292;23.146;2023-02-03T08:44:13;96253.59;;;3.85;69.90
69570;BME280;56781;42.292;23.146;2023-02-03T08:46:40;96249.34;;;3.84;67.06
69570;BME280;56781;42.292;23.146;2023-02-03T08:49:10;96249.03;;;4.65;67.62
69570;BME280;56781;42.292;23.146;2023-02-03T08:51:38;96233.88;;;5.26;63.65
69570;BME280;56781;42.292;23.146;2023-02-03T08:54:06;96226.06;;;5.15;61.86
69570;BME280;56781;42.292;23.146;2023-02-03T08:56:33;96213.41;;;4.78;63.78
69570;BME280;56781;42.292;23.146;2023-02-03T08:59:00;96252.91;;;4.40;65.12
69570;BME280;56781;42.292;23.146;2023-02-03T09:01:27;96231.38;;;3.86;66.81
69570;BME280;56781;42.292;23.146;2023-02-03T09:03:55;96250.13;;;4.13;69.07
69570;BME280;56781;42.292;23.146;2023-02-03T09:06:23;96237.97;;;4.00;70.84
69570;BME280;56781;42.292;23.146;2023-02-03T09:08:51;96256.94;;;4.26;69.10
69570;BME280;56781;42.292;23.146;2023-02-03T09:11:18;96212.91;;;4.25;67.33
69570;BME280;56781;42.292;23.146;2023-02-03T09:13:46;96236.44;;;4.38;68.83
69570;BME280;56781;42.292;23.146;2023-02-03T09:16:16;96237.84;;;4.07;68.38
69570;BME280;56781;42.292;23.146;2023-02-03T09:18:45;96259.44;;;4.16;67.05
69570;BME280;56781;42.292;23.146;2023-02-03T09:21:13;96224.91;;;3.94;64.21
69570;BME280;56781;42.292;23.146;2023-02-03T09:24:03;96239.56;;;4.52;61.79
69570;BME280;56781;42.292;23.146;2023-02-03T09:26:30;96234.13;;;4.25;65.00
69570;BME280;56781;42.292;23.146;2023-02-03T09:28:57;96255.97;;;4.49;64.50
69570;BME280;56781;42.292;23.146;2023-02-03T09:31:24;96256.53;;;4.34;64.32
69570;BME280;56781;42.292;23.146;2023-02-03T09:33:51;96246.16;;;4.50;63.42
69570;BME280;56781;42.292;23.146;2023-02-03T09:36:18;96255.16;;;4.49;63.49
69570;BME280;56781;42.292;23.146;2023-02-03T09:38:45;96265.69;;;4.82;66.14
69570;BME280;56781;42.292;23.146;2023-02-03T09:44:30;96251.06;;;4.07;66.05
69570;BME280;56781;42.292;23.146;2023-02-03T09:47:04;96273.94;;;4.47;65.15
69570;BME280;56781;42.292;23.146;2023-02-03T09:49:42;96251.94;;;4.47;64.65
69570;BME280;56781;42.292;23.146;2023-02-03T09:52:18;96247.19;;;4.49;63.64
69570;BME280;56781;42.292;23.146;2023-02-03T09:55:17;96231.63;;;4.74;63.72
69570;BME280;56781;42.292;23.146;2023-02-03T09:57:49;96236.94;;;4.74;65.43
69570;BME280;56781;42.292;23.146;2023-02-03T10:00:26;96241.66;;;4.50;65.10
69570;BME280;56781;42.292;23.146;2023-02-03T10:16:46;96240.69;;;4.39;63.08
69570;BME280;56781;42.292;23.146;2023-02-03T10:19:16;96211.47;;;4.51;61.95
69570;BME280;56781;42.292;23.146;2023-02-03T10:21:50;96221.81;;;4.75;61.58
69570;BME280;56781;42.292;23.146;2023-02-03T10:24:22;96228.81;;;5.47;62.19
69570;BME280;56781;42.292;23.146;2023-02-03T10:26:51;96203.19;;;5.36;57.38
69570;BME280;56781;42.292;23.146;2023-02-03T10:29:33;96205.19;;;5.50;56.37
69570;BME280;56781;42.292;23.146;2023-02-03T10:32:01;96192.91;;;5.71;56.83
69570;BME280;56781;42.292;23.146;2023-02-03T10:34:29;96206.84;;;5.84;57.89
69570;BME280;56781;42.292;23.146;2023-02-03T10:36:58;96214.31;;;6.56;60.54
69570;BME280;56781;42.292;23.146;2023-02-03T10:39:40;96195.78;;;6.66;56.03
69570;BME280;56781;42.292;23.146;2023-02-03T10:42:10;96181.38;;;5.88;58.76
69570;BME280;56781;42.292;23.146;2023-02-03T10:44:45;96204.66;;;5.21;56.82
69570;BME280;56781;42.292;23.146;2023-02-03T10:47:37;96188.09;;;5.14;58.64
69570;BME280;56781;42.292;23.146;2023-02-03T10:50:16;96216.06;;;5.22;56.73
69570;BME280;56781;42.292;23.146;2023-02-03T10:52:43;96168.78;;;5.46;61.30
69570;BME280;56781;42.292;23.146;2023-02-03T10:57:53;96194.44;;;6.69;60.38
69570;BME280;56781;42.292;23.146;2023-02-03T11:00:29;96179.59;;;6.73;53.36
69570;BME280;56781;42.292;23.146;2023-02-03T11:05:36;96198.44;;;5.38;57.38
69570;BME280;56781;42.292;23.146;2023-02-03T11:08:03;96158.91;;;5.14;55.83
69570;BME280;56781;42.292;23.146;2023-02-03T11:10:39;96181.22;;;5.18;55.81
69570;BME280;56781;42.292;23.146;2023-02-03T11:13:25;96159.00;;;4.75;57.43
69570;BME280;56781;42.292;23.146;2023-02-03T11:16:04;96185.69;;;4.69;59.64
69570;BME280;56781;42.292;23.146;2023-02-03T11:21:13;96197.66;;;4.71;61.38
69570;BME280;56781;42.292;23.146;2023-02-03T11:23:54;96170.69;;;4.57;63.75
69570;BME280;56781;42.292;23.146;2023-02-03T11:26:46;96162.00;;;4.40;58.11
69570;BME280;56781;42.292;23.146;2023-02-03T11:29:21;96173.72;;;4.66;62.56
69570;BME280;56781;42.292;23.146;2023-02-03T11:31:51;96165.53;;;4.89;60.15
69570;BME280;56781;42.292;23.146;2023-02-03T11:34:24;96152.19;;;4.40;61.98
69570;BME280;56781;42.292;23.146;2023-02-03T11:36:53;96149.16;;;4.15;61.80
69570;BME280;56781;42.292;23.146;2023-02-03T11:39:30;96158.31;;;4.24;62.36
69570;BME280;56781;42.292;23.146;2023-02-03T11:42:01;96135.53;;;4.45;59.81
69570;BME280;56781;42.292;23.146;2023-02-03T11:44:29;96139.69;;;4.80;59.88
69570;BME280;56781;42.292;23.146;2023-02-03T11:47:11;96122.72;;;5.03;57.12
69570;BME280;56781;42.292;23.146;2023-02-03T11:52:55;96097.31;;;4.85;56.88
69570;BME280;56781;42.292;23.146;2023-02-03T12:21:45;96101.44;;;5.57;49.65
69570;BME280;56781;42.292;23.146;2023-02-03T12:24:23;96100.84;;;5.50;47.25
69570;BME280;56781;42.292;23.146;2023-02-03T12:29:46;96097.25;;;5.07;49.46
69570;BME280;56781;42.292;23.146;2023-02-03T12:35:27;96120.59;;;5.05;49.55
69570;BME280;56781;42.292;23.146;2023-02-03T12:38:04;96106.69;;;4.49;51.14
69570;BME280;56781;42.292;23.146;2023-02-03T12:40:44;96130.63;;;4.54;51.19
69570;BME280;56781;42.292;23.146;2023-02-03T12:43:33;96085.78;;;4.08;52.51
69570;BME280;56781;42.292;23.146;2023-02-03T12:46:19;96095.53;;;4.25;54.41
69570;BME280;56781;42.292;23.146;2023-02-03T12:49:12;96091.09;;;4.30;53.94
69570;BME280;56781;42.292;23.146;2023-02-03T12:51:53;96081.97;;;4.43;50.96
69570;BME280;56781;42.292;23.146;2023-02-03T12:54:53;96067.22;;;4.08;50.54
69570;BME280;56781;42.292;23.146;2023-02-03T12:57:45;96079.78;;;4.18;54.60
69570;BME280;56781;42.292;23.146;2023-02-03T13:08:35;96084.41;;;4.06;54.00
69570;BME280;56781;42.292;23.146;2023-02-03T13:13:55;96071.97;;;4.06;55.66
69570;BME280;56781;42.292;23.146;2023-02-03T13:16:28;96065.28;;;3.65;56.40
69570;BME280;56781;42.292;23.146;2023-02-03T13:19:04;96075.31;;;3.63;56.67
69570;BME280;56781;42.292;23.146;2023-02-03T13:21:33;96064.34;;;3.54;54.99
69570;BME280;56781;42.292;23.146;2023-02-03T13:24:02;96059.28;;;3.69;55.02
69570;BME280;56781;42.292;23.146;2023-02-03T13:34:53;96089.44;;;4.24;56.65
69570;BME280;56781;42.292;23.146;2023-02-03T13:40:18;96092.44;;;4.33;52.35
69570;BME280;56781;42.292;23.146;2023-02-03T13:43:02;96087.78;;;4.01;54.13
69570;BME280;56781;42.292;23.146;2023-02-03T13:45:40;96050.50;;;3.69;55.85
69570;BME280;56781;42.292;23.146;2023-02-03T13:48:24;96071.28;;;3.94;55.19
69570;BME280;56781;42.292;23.146;2023-02-03T13:51:12;96067.84;;;3.76;55.96
69570;BME280;56781;42.292;23.146;2023-02-03T13:53:42;96090.69;;;3.99;55.07
69570;BME280;56781;42.292;23.146;2023-02-03T13:56:23;96098.00;;;3.92;55.49
69570;BME280;56781;42.292;23.146;2023-02-03T13:59:04;96102.31;;;3.98;57.74
69570;BME280;56781;42.292;23.146;2023-02-03T14:01:34;96107.28;;;4.12;57.59
69570;BME280;56781;42.292;23.146;2023-02-03T14:04:04;96082.97;;;3.98;57.82
69570;BME280;56781;42.292;23.146;2023-02-03T14:12:20;96104.09;;;3.93;55.54
69570;BME280;56781;42.292;23.146;2023-02-03T14:14:59;96065.03;;;3.83;53.60
69570;BME280;56781;42.292;23.146;2023-02-03T14:23:33;96067.53;;;3.73;54.99
69570;BME280;56781;42.292;23.146;2023-02-03T14:25:58;96069.03;;;3.69;55.38
69570;BME280;56781;42.292;23.146;2023-02-03T14:28:41;96094.97;;;3.84;56.90
69570;BME280;56781;42.292;23.146;2023-02-03T14:31:23;96099.31;;;3.73;56.08
69570;BME280;56781;42.292;23.146;2023-02-03T14:33:54;96080.78;;;3.56;55.36
69570;BME280;56781;42.292;23.146;2023-02-03T14:36:30;96083.88;;;3.87;56.34
69570;BME280;56781;42.292;23.146;2023-02-03T14:39:03;96082.19;;;3.97;55.63
69570;BME280;56781;42.292;23.146;2023-02-03T14:41:37;96074.59;;;4.06;54.67
69570;BME280;56781;42.292;23.146;2023-02-03T14:50:10;96111.13;;;4.04;53.60
69570;BME280;56781;42.292;23.146;2023-02-03T14:55:38;96078.69;;;3.41;54.67
69570;BME280;56781;42.292;23.146;2023-02-03T14:58:36;96096.31;;;3.36;56.39
69570;BME280;56781;42.292;23.146;2023-02-03T15:06:43;96085.63;;;3.14;55.32
69570;BME280;56781;42.292;23.146;2023-02-03T15:09:33;96077.22;;;3.00;56.50
69570;BME280;56781;42.292;23.146;2023-02-03T15:12:16;96051.91;;;2.75;57.19
69570;BME280;56781;42.292;23.146;2023-02-03T15:14:44;96090.34;;;2.95;57.08
69570;BME280;56781;42.292;23.146;2023-02-03T15:17:20;96077.78;;;2.73;60.29
69570;BME280;56781;42.292;23.146;2023-02-03T15:19:49;96079.72;;;2.78;59.10
69570;BME280;56781;42.292;23.146;2023-02-03T15:22:18;96067.09;;;2.68;59.25
69570;BME280;56781;42.292;23.146;2023-02-03T15:24:46;96086.22;;;2.58;60.50